createdAt,value
2018-06-09T04:10:23.638Z,97.42
2018-06-09T04:10:49.129Z,97.71
2018-06-09T04:11:14.602Z,97.23
2018-06-09T04:11:40.096Z,97.52
2018-06-09T04:12:05.589Z,97.71
2018-06-09T04:12:31.058Z,97.33
2018-06-09T04:12:56.493Z,97.42
2018-06-09T04:13:21.975Z,97.71
2018-06-09T04:13:47.469Z,97.61
2018-06-09T04:14:12.916Z,97.61
2018-06-09T04:14:38.375Z,97.81
2018-06-09T04:15:03.869Z,97.9
2018-06-09T04:15:29.343Z,97.9
2018-06-09T04:15:54.889Z,97.9
2018-06-09T04:16:20.343Z,97.9
2018-06-09T04:16:45.782Z,97.23
2018-06-09T04:17:11.275Z,97.61
2018-06-09T04:17:36.743Z,96.94
2018-06-09T04:18:02.252Z,97.61
2018-06-09T04:19:00.848Z,97.61
2018-06-09T04:19:26.370Z,97.42
2018-06-09T04:19:51.847Z,97.42
2018-06-09T04:20:17.340Z,97.52
2018-06-09T04:20:42.897Z,97.61
2018-06-09T04:21:08.262Z,97.04
2018-06-09T04:21:33.735Z,97.52
2018-06-09T04:21:59.207Z,97.23
2018-06-09T04:22:24.679Z,96.94
2018-06-09T04:22:50.144Z,97.04
2018-06-09T04:23:15.598Z,97.04
2018-06-09T04:23:41.095Z,97.04
2018-06-09T04:24:06.584Z,97.04
2018-06-09T04:24:32.182Z,96.94
2018-06-09T04:24:57.617Z,97.61
2018-06-09T04:25:23.101Z,97.42
2018-06-09T04:26:21.626Z,97.14
2018-06-09T04:26:47.128Z,97.04
2018-06-09T04:27:12.630Z,97.61
2018-06-09T04:27:38.145Z,97.23
2018-06-09T04:28:03.556Z,97.42
2018-06-09T04:28:29.064Z,96.75
2018-06-09T04:28:54.556Z,97.42
2018-06-09T04:29:20.048Z,97.04
2018-06-09T04:29:45.534Z,97.23
2018-06-09T04:30:11.113Z,96.94
2018-06-09T04:30:36.546Z,96.47
2018-06-09T04:31:02.047Z,97.14
2018-06-09T04:31:27.536Z,96.85
2018-06-09T04:31:52.971Z,97.23
2018-06-09T04:32:18.474Z,97.42
2018-06-09T04:32:43.987Z,97.42
2018-06-09T04:33:09.460Z,97.33
2018-06-09T04:33:34.987Z,97.09
2018-06-09T04:34:00.438Z,97.14
2018-06-09T04:34:25.895Z,97.61
2018-06-09T04:34:51.373Z,97.71
2018-06-09T04:35:16.833Z,97.61
2018-06-09T04:36:15.397Z,97.28
2018-06-09T04:36:40.889Z,96.66
2018-06-09T04:37:06.384Z,96.13
2018-06-09T04:37:31.838Z,96.08
2018-06-09T04:37:57.350Z,96.66
2018-06-09T04:38:22.823Z,96.56
2018-06-09T04:38:48.280Z,97.33
2018-06-09T04:39:13.753Z,96.94
2018-06-09T04:39:39.191Z,96.75
2018-06-09T04:40:04.671Z,96.61
2018-06-09T04:40:30.159Z,97.04
2018-06-09T04:40:55.614Z,95.7
2018-06-09T04:41:21.122Z,95.98
2018-06-09T04:41:46.603Z,96.08
2018-06-09T04:42:12.094Z,96.18
2018-06-09T04:42:37.579Z,95.12
2018-06-09T04:43:03.061Z,96.03
2018-06-09T04:43:28.532Z,96.13
2018-06-09T04:43:54.032Z,96.89
2018-06-09T04:44:19.487Z,96.7
2018-06-09T04:44:44.945Z,96.47
2018-06-09T04:45:10.405Z,96.56
2018-06-09T04:45:35.883Z,96.8
2018-06-09T04:46:01.407Z,96.37
2018-06-09T04:46:26.871Z,96.08
2018-06-09T04:46:52.344Z,95.89
2018-06-09T04:47:17.833Z,96.51
2018-06-09T04:47:43.300Z,96.18
2018-06-09T04:48:08.816Z,96.27
2018-06-09T04:48:34.235Z,96.03
2018-06-09T04:48:59.811Z,95.7
2018-06-09T04:49:25.210Z,96.03
2018-06-09T04:49:50.722Z,96.89
2018-06-09T04:50:16.241Z,96.89
2018-06-09T04:50:41.715Z,96.42
2018-06-09T04:51:07.172Z,96.32
2018-06-09T04:51:32.687Z,96.13
2018-06-09T04:51:58.135Z,96.22
2018-06-09T04:52:23.591Z,96.8
2018-06-09T04:52:49.107Z,96.8
2018-06-09T04:53:14.581Z,96.8
2018-06-09T04:53:40.113Z,96.8
2018-06-09T04:54:05.616Z,96.61
2018-06-09T04:54:31.057Z,96.8
2018-06-09T04:54:56.544Z,96.51
2018-06-09T04:55:22.033Z,96.8
2018-06-09T04:55:47.516Z,96.99
2018-06-09T04:56:12.971Z,96.7
2018-06-09T04:56:38.457Z,97.09
2018-06-09T04:57:03.904Z,96.03
2018-06-09T04:57:29.407Z,96.03
2018-06-09T04:57:54.945Z,96.22
2018-06-09T04:58:20.408Z,96.42
2018-06-09T04:58:45.912Z,96.03
2018-06-09T04:59:11.431Z,95.94
2018-06-09T04:59:36.889Z,96.42
2018-06-09T05:00:02.393Z,96.22
2018-06-09T05:00:27.877Z,96.22
2018-06-09T05:00:53.386Z,95.46
2018-06-09T05:01:18.905Z,95.55
2018-06-09T05:01:44.382Z,95.46
2018-06-09T05:02:53.448Z,95.36
2018-06-09T05:03:18.929Z,95.65
2018-06-09T05:03:44.440Z,95.65
2018-06-09T05:04:53.124Z,95.55
2018-06-09T05:05:18.612Z,95.46
2018-06-09T05:05:44.101Z,94.88
2018-06-09T05:06:09.616Z,95.36
2018-06-09T05:06:35.053Z,95.75
2018-06-09T05:07:00.513Z,94.98
2018-06-09T05:07:25.976Z,94.69
2018-06-09T05:08:19.414Z,94.79
2018-06-09T05:08:44.907Z,95.55
2018-06-09T05:09:10.410Z,95.46
2018-06-09T05:09:35.951Z,95.55
2018-06-09T05:10:01.426Z,95.36
2018-06-09T05:10:26.940Z,95.26
2018-06-09T05:10:52.465Z,95.84
2018-06-09T05:11:17.944Z,96.03
2018-06-09T05:11:43.445Z,95.94
2018-06-09T05:12:08.970Z,96.13
2018-06-09T05:12:34.427Z,96.22
2018-06-09T05:12:59.964Z,96.03
2018-06-09T05:13:25.415Z,95.26
2018-06-09T05:13:50.937Z,95.65
2018-06-09T05:14:16.461Z,95.07
2018-06-09T05:14:41.969Z,95.55
2018-06-09T05:15:07.470Z,96.03
2018-06-09T05:15:32.962Z,96.32
2018-06-09T05:15:58.493Z,96.13
2018-06-09T05:16:23.979Z,96.32
2018-06-09T05:16:49.499Z,96.42
2018-06-09T05:17:14.995Z,96.51
2018-06-09T05:17:40.487Z,96.22
2018-06-09T05:18:05.959Z,96.22
2018-06-09T05:18:31.486Z,95.55
2018-06-09T05:18:56.988Z,96.22
2018-06-09T05:19:22.476Z,96.42
2018-06-09T05:19:47.974Z,96.13
2018-06-09T05:20:13.440Z,96.13
2018-06-09T05:20:38.986Z,95.46
2018-06-09T05:21:04.493Z,96.03
2018-06-09T05:21:30.042Z,96.51
2018-06-09T05:21:55.535Z,96.13
2018-06-09T05:22:21.035Z,95.94
2018-06-09T05:22:46.526Z,96.32
2018-06-09T05:23:12.005Z,96.32
2018-06-09T05:23:37.526Z,96.03
2018-06-09T05:24:02.962Z,96.03
2018-06-09T05:24:28.448Z,96.13
2018-06-09T05:24:53.970Z,95.55
2018-06-09T05:25:19.485Z,94.88
2018-06-09T05:25:44.981Z,94.69
2018-06-09T05:26:10.500Z,95.03
2018-06-09T05:26:36.013Z,95.03
2018-06-09T05:27:01.513Z,95.26
2018-06-09T05:27:26.984Z,95.12
2018-06-09T05:27:52.509Z,95.31
2018-06-09T05:28:18.003Z,95.41
2018-06-09T05:28:43.458Z,95.5
2018-06-09T05:29:08.925Z,95.03
2018-06-09T05:29:34.426Z,95.12
2018-06-09T05:29:59.924Z,95.03
2018-06-09T05:30:25.402Z,95.31
2018-06-09T05:30:50.898Z,95.7
2018-06-09T05:31:16.433Z,95.6
2018-06-09T05:31:41.938Z,95.7
2018-06-09T05:32:07.367Z,95.41
2018-06-09T05:32:32.829Z,95.21
2018-06-09T05:32:58.292Z,95.55
2018-06-09T05:33:23.770Z,95.65
2018-06-09T05:33:49.230Z,94.98
2018-06-09T05:34:14.738Z,94.98
2018-06-09T05:34:40.246Z,94.59
2018-06-09T05:35:05.660Z,94.78
2018-06-09T05:35:31.175Z,95.17
2018-06-09T05:35:56.636Z,95.07
2018-06-09T05:36:22.099Z,94.59
2018-06-09T05:37:25.701Z,94.59
2018-06-09T05:37:51.193Z,94.21
2018-06-09T05:38:16.678Z,94.83
2018-06-09T05:38:42.188Z,94.45
2018-06-09T05:39:40.730Z,94.54
2018-06-09T05:40:06.220Z,94.93
2018-06-09T05:40:31.741Z,94.93
2018-06-09T05:40:57.257Z,94.93
2018-06-09T05:41:22.729Z,94.54
2018-06-09T05:41:48.408Z,93.39
2018-06-09T05:42:13.976Z,93.39
2018-06-09T05:42:39.393Z,93.44
2018-06-09T05:43:04.862Z,93.44
2018-06-09T05:43:30.332Z,93.58
2018-06-09T05:43:55.795Z,93.63
2018-06-09T05:45:09.559Z,92.67
2018-06-09T05:45:35.073Z,92.47
2018-06-09T05:46:00.540Z,92.38
2018-06-09T05:46:26.012Z,92.47
2018-06-09T05:46:51.527Z,92.67
2018-06-09T05:47:17.063Z,92.38
2018-06-09T05:47:42.559Z,91.9
2018-06-09T05:48:08.027Z,92.19
2018-06-09T05:48:33.479Z,91.52
2018-06-09T05:48:58.991Z,90.94
2018-06-09T05:49:24.439Z,91.42
2018-06-09T05:49:49.911Z,91.03
2018-06-09T05:50:15.501Z,90.84
2018-06-09T05:50:41.007Z,90.45
2018-06-09T05:51:06.466Z,91.42
2018-06-09T05:51:31.949Z,91.42
2018-06-09T05:52:45.745Z,90.75
2018-06-09T05:53:11.263Z,91.03
2018-06-09T05:53:36.717Z,91.32
2018-06-09T05:54:02.196Z,90.36
2018-06-09T05:54:27.663Z,90.12
2018-06-09T05:54:53.150Z,90.21
2018-06-09T05:55:18.619Z,90.31
2018-06-09T05:55:44.077Z,90.59
2018-06-09T05:56:09.573Z,90.5
2018-06-09T05:56:35.094Z,90.41
2018-06-09T05:57:00.570Z,90.69
2018-06-09T05:57:26.076Z,90.5
2018-06-09T05:57:51.623Z,90.41
2018-06-09T05:58:17.120Z,90.59
2018-06-09T05:58:42.619Z,90.69
2018-06-09T05:59:08.119Z,90.5
2018-06-09T05:59:33.587Z,90.79
2018-06-09T05:59:59.089Z,90.41
2018-06-09T06:00:24.586Z,90.12
2018-06-09T06:00:50.063Z,89.64
2018-06-09T06:01:15.539Z,89.92
2018-06-09T06:01:41.009Z,89.64
2018-06-09T06:02:06.495Z,89.35
2018-06-09T06:02:31.971Z,89.06
2018-06-09T06:02:57.481Z,89.54
2018-06-09T06:03:22.921Z,90.12
2018-06-09T06:03:48.419Z,89.64
2018-06-09T06:04:13.894Z,89.73
2018-06-09T06:04:39.384Z,89.25
2018-06-09T06:05:04.884Z,89.54
2018-06-09T06:05:30.395Z,89.25
2018-06-09T06:05:55.874Z,89.35
2018-06-09T06:07:09.684Z,89.44
2018-06-09T06:07:35.164Z,89.35
2018-06-09T06:08:00.673Z,90.07
2018-06-09T06:08:26.341Z,89.69
2018-06-09T06:08:51.782Z,89.98
2018-06-09T06:09:17.255Z,90.17
2018-06-09T06:09:42.735Z,90.55
2018-06-09T06:10:08.225Z,90.84
2018-06-09T06:10:33.716Z,90.65
2018-06-09T06:10:59.191Z,90.55
2018-06-09T06:11:24.697Z,90.75
2018-06-09T06:11:50.225Z,90.36
2018-06-09T06:12:15.769Z,90.75
2018-06-09T06:12:41.270Z,90.94
2018-06-09T06:13:06.744Z,91.03
2018-06-09T06:13:32.200Z,91.42
2018-06-09T06:13:57.682Z,91.32
2018-06-09T06:14:23.182Z,91.52
2018-06-09T06:14:48.646Z,91.42
2018-06-09T06:15:14.137Z,91.9
2018-06-09T06:15:39.594Z,92.29
2018-06-09T06:16:05.076Z,91.99
2018-06-09T06:16:58.543Z,92.19
2018-06-09T06:17:24.038Z,92.09
2018-06-09T06:17:49.549Z,91.99
2018-06-09T06:18:15.054Z,92.09
2018-06-09T06:18:40.482Z,91.99
2018-06-09T06:19:05.976Z,92.09
2018-06-09T06:19:31.461Z,91.9
2018-06-09T06:19:56.918Z,91.71
2018-06-09T06:20:50.350Z,91.22
2018-06-09T06:21:15.834Z,91.42
2018-06-09T06:21:41.333Z,91.61
2018-06-09T06:22:06.783Z,91.42
2018-06-09T06:22:32.248Z,91.22
2018-06-09T06:22:57.732Z,90.84
2018-06-09T06:23:23.281Z,90.26
2018-06-09T06:23:48.740Z,90.36
2018-06-09T06:24:14.252Z,90.75
2018-06-09T06:24:39.719Z,90.84
2018-06-09T06:25:05.214Z,90.45
2018-06-09T06:25:30.998Z,90.84
2018-06-09T06:25:56.311Z,90.45
2018-06-09T06:26:21.809Z,90.65
2018-06-09T06:26:47.324Z,90.98
2018-06-09T06:27:12.814Z,90.69
2018-06-09T06:27:38.266Z,90.84
2018-06-09T06:28:03.968Z,91.08
2018-06-09T06:28:29.574Z,90.69
2018-06-09T06:28:55.156Z,90.36
2018-06-09T06:29:20.579Z,90.12
2018-06-09T06:29:46.495Z,89.54
2018-06-09T06:30:11.672Z,89.15
2018-06-09T06:30:37.304Z,88.87
2018-06-09T06:31:02.772Z,89.35
2018-06-09T06:31:28.289Z,89.15
2018-06-09T06:31:53.833Z,89.15
2018-06-09T06:32:19.253Z,89.25
2018-06-09T06:32:44.744Z,89.25
2018-06-09T06:33:10.196Z,89.25
2018-06-09T06:33:35.665Z,88.96
2018-06-09T06:34:01.133Z,89.15
2018-06-09T06:34:26.616Z,89.35
2018-06-09T06:34:52.095Z,89.35
2018-06-09T06:35:17.593Z,89.35
2018-06-09T06:35:42.988Z,89.35
2018-06-09T06:36:08.509Z,89.25
2018-06-09T06:36:34.071Z,89.44
2018-06-09T06:36:59.651Z,89.54
2018-06-09T06:37:24.974Z,89.64
2018-06-09T06:37:50.410Z,89.15
2018-06-09T06:38:15.977Z,89.44
2018-06-09T06:38:41.383Z,89.73
2018-06-09T06:39:06.880Z,89.92
2018-06-09T06:39:32.348Z,89.15
2018-06-09T06:39:57.785Z,89.35
2018-06-09T06:40:23.278Z,88.87
2018-06-09T06:40:48.783Z,88.87
2018-06-09T06:41:14.283Z,88.77
2018-06-09T06:41:39.746Z,88.96
2018-06-09T06:42:05.205Z,89.06
2018-06-09T06:42:30.686Z,89.73
2018-06-09T06:42:56.230Z,89.35
2018-06-09T06:43:21.666Z,89.83
2018-06-09T06:43:47.262Z,90.12
2018-06-09T06:44:12.675Z,90.21
2018-06-09T06:44:38.869Z,90.5
2018-06-09T06:45:04.636Z,90.5
2018-06-09T06:45:30.558Z,90.5
2018-06-09T06:45:56.163Z,90.59
2018-06-09T06:46:21.729Z,90.41
2018-06-09T06:46:47.432Z,90.31
2018-06-09T06:47:13.503Z,90.31
2018-06-09T06:47:39.285Z,90.59
2018-06-09T06:48:05.238Z,90.5
2018-06-09T06:48:31.137Z,90.02
2018-06-09T06:48:57.035Z,90.35
2018-06-09T06:49:22.486Z,90.5
2018-06-09T06:49:48.630Z,90.31
2018-06-09T06:50:16.521Z,90.89
2018-06-09T06:50:42.513Z,90.55
2018-06-09T06:51:08.871Z,90.5
2018-06-09T06:51:34.622Z,90.59
2018-06-09T06:52:00.488Z,90.69
2018-06-09T06:52:26.733Z,90.89
2018-06-09T06:52:52.195Z,90.16
2018-06-09T06:53:19.966Z,89.78
2018-06-09T06:53:45.560Z,89.73
2018-06-09T06:54:11.346Z,89.54
2018-06-09T06:54:37.373Z,89.58
2018-06-09T06:55:02.742Z,89.58
2018-06-09T06:55:28.403Z,89.39
2018-06-09T06:55:54.371Z,89.78
2018-06-09T06:56:20.225Z,89.39
2018-06-09T06:56:45.933Z,89.29
2018-06-09T06:57:12.193Z,89.29
2018-06-09T06:57:37.766Z,89.2
2018-06-09T06:58:03.281Z,89.68
2018-06-09T06:58:29.022Z,89.39
2018-06-09T06:58:54.707Z,89.39
2018-06-09T06:59:20.727Z,89.01
2018-06-09T06:59:46.485Z,89.2
2018-06-09T07:00:12.277Z,88.53
2018-06-09T07:00:38.142Z,88.62
2018-06-09T07:01:03.952Z,88.81
2018-06-09T07:01:29.553Z,88.62
2018-06-09T07:01:55.330Z,88.43
2018-06-09T07:02:21.193Z,88.14
2018-06-09T07:02:46.733Z,88.38
2018-06-09T07:03:12.394Z,87.18
2018-06-09T07:03:38.606Z,87.6
2018-06-09T07:04:04.509Z,87.99
2018-06-09T07:04:29.900Z,87.99
2018-06-09T07:04:55.538Z,87.32
2018-06-09T07:05:21.531Z,87.12
2018-06-09T07:05:46.864Z,87.32
2018-06-09T07:06:12.399Z,87.22
2018-06-09T07:06:37.915Z,87.41
2018-06-09T07:07:03.990Z,87.51
2018-06-09T07:07:30.458Z,86.83
2018-06-09T07:07:57.875Z,87.22
2018-06-09T07:08:24.420Z,87.22
2018-06-09T07:08:50.506Z,87.32
2018-06-09T07:09:16.041Z,87.32
2018-06-09T07:09:41.793Z,87.55
2018-06-09T07:10:07.824Z,87.46
2018-06-09T07:10:33.955Z,87.36
2018-06-09T07:10:59.589Z,87.36
2018-06-09T07:11:25.214Z,87.26
2018-06-09T07:11:50.821Z,87.65
2018-06-09T07:12:16.775Z,86.88
2018-06-09T07:12:43.150Z,86.88
2018-06-09T07:13:08.595Z,87.07
2018-06-09T07:13:35.091Z,86.49
2018-06-09T07:14:00.403Z,86.49
2018-06-09T07:14:25.994Z,85.47
2018-06-09T07:14:51.867Z,85.53
2018-06-09T07:15:17.754Z,85.28
2018-06-09T07:15:43.515Z,85.09
2018-06-09T07:16:09.297Z,85.05
2018-06-09T07:16:35.767Z,85.67
2018-06-09T07:17:35.884Z,84.12
2018-06-09T07:18:01.536Z,84.42
2018-06-09T07:18:27.349Z,84.7
2018-06-09T07:18:53.433Z,84.9
2018-06-09T07:19:19.130Z,84.9
2018-06-09T07:19:44.985Z,85.38
2018-06-09T07:20:10.674Z,85.57
2018-06-09T07:20:36.268Z,85.57
2018-06-09T07:21:01.759Z,84.8
2018-06-09T07:21:27.384Z,85.09
2018-06-09T07:21:54.194Z,84.99
2018-06-09T07:22:19.780Z,85.19
2018-06-09T07:22:45.799Z,84.84
2018-06-09T07:23:11.801Z,84.07
2018-06-09T07:23:37.821Z,84.36
2018-06-09T07:24:03.963Z,83.98
2018-06-09T07:24:29.694Z,84.36
2018-06-09T07:24:55.269Z,84.11
2018-06-09T07:25:21.006Z,83.92
2018-06-09T07:25:46.611Z,82.76
2018-06-09T07:26:12.523Z,81.8
2018-06-09T07:26:38.359Z,82.48
2018-06-09T07:27:04.445Z,83
2018-06-09T07:27:30.132Z,83.34
2018-06-09T07:27:55.648Z,83.67
2018-06-09T07:28:21.114Z,83.29
2018-06-09T07:28:46.769Z,82.61
2018-06-09T07:29:12.598Z,81.26
2018-06-09T07:29:38.383Z,80.62
2018-06-09T07:30:03.982Z,81.01
2018-06-09T07:30:29.648Z,80.91
2018-06-09T07:30:55.295Z,80.91
2018-06-09T07:31:20.917Z,80.43
2018-06-09T07:31:46.887Z,80.82
2018-06-09T07:32:12.444Z,81.07
2018-06-09T07:32:38.420Z,81.11
2018-06-09T07:33:04.481Z,81.11
2018-06-09T07:33:30.789Z,81.01
2018-06-09T07:33:56.436Z,81.01
2018-06-09T07:34:22.434Z,81.2
2018-06-09T07:34:47.963Z,81.4
2018-06-09T07:35:14.020Z,80.72
2018-06-09T07:35:39.680Z,80.87
2018-06-09T07:36:05.613Z,80.43
2018-06-09T07:36:31.354Z,80.24
2018-06-09T07:36:57.500Z,80.14
2018-06-09T07:37:23.682Z,79.04
2018-06-09T07:37:49.386Z,79.17
2018-06-09T07:38:15.676Z,79.08
2018-06-09T07:38:41.272Z,79.17
2018-06-09T07:39:07.241Z,78.79
2018-06-09T07:39:33.090Z,77.63
2018-06-09T07:39:59.186Z,78.41
2018-06-09T07:40:24.635Z,78.59
2018-06-09T07:40:50.303Z,78.69
2018-06-09T07:41:16.221Z,78.79
2018-06-09T07:41:41.567Z,79.08
2018-06-09T07:42:07.315Z,79.27
2018-06-09T07:42:33.583Z,79.08
2018-06-09T07:42:59.319Z,79.17
2018-06-09T07:43:25.009Z,79.47
2018-06-09T07:43:50.668Z,79.66
2018-06-09T07:44:16.357Z,79.56
2018-06-09T07:44:42.503Z,79.37
2018-06-09T07:45:07.973Z,79.8
2018-06-09T07:45:33.356Z,79.12
2018-06-09T07:45:58.897Z,78.64
2018-06-09T07:46:24.489Z,78.34
2018-06-09T07:46:49.893Z,78.54
2018-06-09T07:47:15.466Z,78.44
2018-06-09T07:47:40.880Z,78.06
2018-06-09T07:48:06.364Z,77.67
2018-06-09T07:48:31.982Z,78.06
2018-06-09T07:48:57.539Z,78.06
2018-06-09T07:49:23.021Z,78.15
2018-06-09T07:49:48.509Z,78.83
2018-06-09T07:50:14.085Z,78.54
2018-06-09T07:50:39.597Z,78.19
2018-06-09T07:51:05.193Z,77.8
2018-06-09T07:51:31.425Z,77.22
2018-06-09T07:51:56.898Z,76.64
2018-06-09T07:52:22.696Z,75.58
2018-06-09T07:52:48.369Z,75.78
2018-06-09T07:53:14.248Z,75.1
2018-06-09T07:53:40.185Z,75.78
2018-06-09T07:54:05.779Z,75.2
2018-06-09T07:54:31.521Z,75.87
2018-06-09T07:54:57.413Z,76.06
2018-06-09T07:55:23.286Z,75.87
2018-06-09T07:55:48.850Z,76.35
2018-06-09T07:56:14.700Z,76.84
2018-06-09T07:56:40.192Z,76.74
2018-06-09T07:57:05.789Z,77.03
2018-06-09T07:57:31.664Z,76.55
2018-06-09T07:57:57.494Z,76.64
2018-06-09T07:58:23.092Z,76.39
2018-06-09T07:58:48.834Z,76.97
2018-06-09T07:59:14.532Z,77.55
2018-06-09T07:59:40.170Z,77.65
2018-06-09T08:00:06.087Z,77.94
2018-06-09T08:00:31.594Z,78.03
2018-06-09T08:00:57.255Z,77.94
2018-06-09T08:01:22.918Z,77.75
2018-06-09T08:01:48.604Z,77.75
2018-06-09T08:02:14.303Z,77.55
2018-06-09T08:02:40.117Z,77.55
2018-06-09T08:03:05.668Z,77.94
2018-06-09T08:03:31.345Z,76.78
2018-06-09T08:04:35.381Z,76.2
2018-06-09T08:05:00.868Z,76.59
2018-06-09T08:05:26.573Z,76.97
2018-06-09T08:05:52.265Z,77.26
2018-06-09T08:06:18.179Z,76.68
2018-06-09T08:06:43.572Z,76.49
2018-06-09T08:07:09.759Z,76.78
2018-06-09T08:07:34.967Z,76.59
2018-06-09T08:08:38.926Z,75.43
2018-06-09T08:09:04.358Z,75.81
2018-06-09T08:09:29.730Z,75.52
2018-06-09T08:09:55.328Z,75.71
2018-06-09T08:10:20.767Z,75.62
2018-06-09T08:10:46.355Z,75.33
2018-06-09T08:11:11.922Z,76.2
2018-06-09T08:11:37.299Z,76.62
2018-06-09T08:12:02.846Z,76.49
2018-06-09T08:12:28.353Z,76.14
2018-06-09T08:12:54.224Z,75.85
2018-06-09T08:13:19.757Z,75.43
2018-06-09T08:13:45.427Z,75.75
2018-06-09T08:14:11.053Z,76.33
2018-06-09T08:14:36.987Z,75.56
2018-06-09T08:15:02.531Z,75.75
2018-06-09T08:15:28.231Z,74.79
2018-06-09T08:15:54.096Z,74.59
2018-06-09T08:16:19.588Z,74.3
2018-06-09T08:16:45.435Z,72.95
2018-06-09T08:17:10.906Z,72.27
2018-06-09T08:17:36.772Z,72.66
2018-06-09T08:18:02.301Z,72.75
2018-06-09T08:18:28.482Z,73.14
2018-06-09T08:18:54.137Z,74.01
2018-06-09T08:19:19.903Z,74.69
2018-06-09T08:19:45.542Z,74.01
2018-06-09T08:20:10.925Z,73.43
2018-06-09T08:20:36.690Z,73.72
2018-06-09T08:21:02.237Z,73.04
2018-06-09T08:21:27.713Z,72.36
2018-06-09T08:21:53.508Z,72.95
2018-06-09T08:22:18.930Z,73.14
2018-06-09T08:22:44.701Z,72.36
2018-06-09T08:23:10.501Z,71.69
2018-06-09T08:23:36.246Z,71.78
2018-06-09T08:24:02.039Z,71.98
2018-06-09T08:24:27.660Z,71.98
2018-06-09T08:24:53.236Z,71.59
2018-06-09T08:25:19.037Z,71.78
2018-06-09T08:25:44.900Z,71.78
2018-06-09T08:26:10.304Z,71.78
2018-06-09T08:26:35.952Z,71.5
2018-06-09T08:27:01.628Z,71.98
2018-06-09T08:27:27.924Z,72.27
2018-06-09T08:27:53.773Z,72.75
2018-06-09T08:28:19.762Z,72.85
2018-06-09T08:28:45.350Z,72.95
2018-06-09T08:29:11.560Z,73.75
2018-06-09T08:29:37.853Z,74.15
2018-06-09T08:30:03.249Z,74.11
2018-06-09T08:30:28.836Z,73.47
2018-06-09T08:30:54.734Z,73.47
2018-06-09T08:31:20.720Z,72.5
2018-06-09T08:31:46.610Z,72.89
2018-06-09T08:32:12.300Z,73.08
2018-06-09T08:32:38.127Z,73.47
2018-06-09T08:33:04.160Z,73.08
2018-06-09T08:33:30.107Z,72.69
2018-06-09T08:33:55.519Z,72.6
2018-06-09T08:34:21.325Z,72.02
2018-06-09T08:34:46.856Z,71.92
2018-06-09T08:35:12.744Z,71.53
2018-06-09T08:35:38.367Z,72.4
2018-06-09T08:36:03.898Z,72.3
2018-06-09T08:36:29.757Z,73.47
2018-06-09T08:36:55.632Z,73.27
2018-06-09T08:37:22.258Z,72.6
2018-06-09T08:37:49.326Z,72.02
2018-06-09T08:38:16.759Z,71.72
2018-06-09T08:38:42.465Z,71.72
2018-06-09T08:39:10.849Z,71.44
2018-06-09T08:39:39.283Z,71.14
2018-06-09T08:40:05.365Z,71.24
2018-06-09T08:40:32.564Z,71.34
2018-06-09T08:40:58.531Z,71.92
2018-06-09T08:41:24.219Z,72.08
2018-06-09T08:41:50.205Z,71.92
2018-06-09T08:42:15.743Z,72.3
2018-06-09T08:42:41.476Z,72.98
2018-06-09T08:43:07.178Z,73.18
2018-06-09T08:43:33.871Z,72.98
2018-06-09T08:43:59.516Z,73.75
2018-06-09T08:44:25.396Z,74.24
2018-06-09T08:44:51.516Z,74.53
2018-06-09T08:45:17.361Z,74.34
2018-06-09T08:45:43.078Z,74.63
2018-06-09T08:46:08.815Z,74.15
2018-06-09T08:46:34.586Z,74.05
2018-06-09T08:46:59.947Z,74.15
2018-06-09T08:47:25.729Z,73.95
2018-06-09T08:47:51.615Z,74.05
2018-06-09T08:48:18.214Z,73.47
2018-06-09T08:48:43.970Z,73.37
2018-06-09T08:49:09.878Z,72.6
2018-06-09T08:49:35.909Z,71.53
2018-06-09T08:50:01.810Z,71.82
2018-06-09T08:50:27.067Z,71.62
2018-06-09T08:50:52.800Z,71.82
2018-06-09T08:51:18.955Z,72.6
2018-06-09T08:51:44.420Z,72.46
2018-06-09T08:52:10.259Z,72.08
2018-06-09T08:52:35.997Z,71.98
2018-06-09T08:53:01.715Z,73.33
2018-06-09T08:53:27.192Z,73.53
2018-06-09T08:53:53.214Z,73.33
2018-06-09T08:54:18.686Z,72.66
2018-06-09T08:54:44.622Z,72.75
2018-06-09T08:55:10.114Z,73.24
2018-06-09T08:55:35.809Z,73.14
2018-06-09T08:56:01.694Z,73.04
2018-06-09T08:56:27.280Z,73.14
2018-06-09T08:56:53.402Z,73.43
2018-06-09T08:57:18.979Z,72.56
2018-06-09T08:57:45.008Z,72.46
2018-06-09T08:58:11.361Z,73.33
2018-06-09T08:58:37.014Z,73.04
2018-06-09T08:59:03.311Z,72.95
2018-06-09T08:59:29.406Z,73.14
2018-06-09T08:59:55.144Z,73.04
2018-06-09T09:00:22.130Z,73.04
2018-06-09T09:00:46.976Z,73.14
2018-06-09T09:01:12.521Z,72.98
2018-06-09T09:01:38.348Z,72.85
2018-06-09T09:02:04.035Z,72.79
2018-06-09T09:02:30.190Z,72.5
2018-06-09T09:02:55.722Z,72.79
2018-06-09T09:03:21.607Z,73.37
2018-06-09T09:03:47.248Z,73.47
2018-06-09T09:04:12.950Z,73.37
2018-06-09T09:04:38.449Z,72.83
2018-06-09T09:05:04.064Z,72.63
2018-06-09T09:05:29.866Z,72.73
2018-06-09T09:05:55.345Z,72.73
2018-06-09T09:06:21.378Z,72.83
2018-06-09T09:06:46.984Z,73.11
2018-06-09T09:07:12.641Z,73.69
2018-06-09T09:07:38.451Z,73.25
2018-06-09T09:08:04.291Z,72.92
2018-06-09T09:08:29.951Z,71.7
2018-06-09T09:08:55.485Z,71.5
2018-06-09T09:09:21.327Z,71.22
2018-06-09T09:09:47.009Z,71.34
2018-06-09T09:10:12.685Z,71.06
2018-06-09T09:10:39.028Z,70.76
2018-06-09T09:11:04.528Z,71.44
2018-06-09T09:11:30.547Z,70.86
2018-06-09T09:11:58.010Z,70.28
2018-06-09T09:12:23.880Z,69.89
2018-06-09T09:12:50.489Z,70.09
2018-06-09T09:13:16.068Z,69.89
2018-06-09T09:13:42.051Z,70.09
2018-06-09T09:14:07.969Z,69.7
2018-06-09T09:14:33.940Z,69.99
2018-06-09T09:14:59.935Z,69.99
2018-06-09T09:15:25.554Z,70.05
2018-06-09T09:15:51.961Z,70.15
2018-06-09T09:16:17.662Z,70.44
2018-06-09T09:16:43.776Z,70.54
2018-06-09T09:17:09.627Z,70.63
2018-06-09T09:17:35.124Z,70.73
2018-06-09T09:18:00.973Z,71.02
2018-06-09T09:18:26.879Z,71.99
2018-06-09T09:18:52.785Z,71.89
2018-06-09T09:19:19.100Z,71.89
2018-06-09T09:19:44.967Z,71.7
2018-06-09T09:20:11.582Z,71.41
2018-06-09T09:20:37.775Z,71.6
2018-06-09T09:21:05.857Z,71.89
2018-06-09T09:21:31.937Z,71.89
2018-06-09T09:21:57.972Z,72.09
2018-06-09T09:22:24.224Z,72.77
2018-06-09T09:22:50.093Z,73.15
2018-06-09T09:23:16.020Z,72.09
2018-06-09T09:23:42.114Z,72.18
2018-06-09T09:24:08.039Z,71.89
2018-06-09T09:24:34.014Z,71.89
2018-06-09T09:25:00.082Z,72.09
2018-06-09T09:25:25.853Z,72.99
2018-06-09T09:25:52.042Z,72.99
2018-06-09T09:26:17.512Z,71.64
2018-06-09T09:26:43.661Z,71.44
2018-06-09T09:27:09.976Z,70.09
2018-06-09T09:27:36.250Z,69.7
2018-06-09T09:28:02.097Z,69.89
2018-06-09T09:28:28.084Z,69.5
2018-06-09T09:28:53.835Z,70.18
2018-06-09T09:29:19.976Z,70.18
2018-06-09T09:29:45.607Z,69.89
2018-06-09T09:30:11.612Z,69.21
2018-06-09T09:30:37.894Z,69.5
2018-06-09T09:31:03.537Z,69.12
2018-06-09T09:31:29.459Z,68.92
2018-06-09T09:31:55.417Z,69.5
2018-06-09T09:32:21.431Z,68.82
2018-06-09T09:32:47.774Z,69.21
2018-06-09T09:33:13.893Z,69.21
2018-06-09T09:33:39.763Z,69.31
2018-06-09T09:34:06.148Z,69.99
2018-06-09T09:34:31.874Z,70.09
2018-06-09T09:34:58.202Z,70.18
2018-06-09T09:35:24.114Z,70.18
2018-06-09T09:35:49.794Z,71.25
2018-06-09T09:36:15.804Z,71.54
2018-06-09T09:36:41.514Z,70.76
2018-06-09T09:37:07.246Z,70.37
2018-06-09T09:37:33.947Z,69.99
2018-06-09T09:38:00.485Z,69.31
2018-06-09T09:38:26.368Z,69.31
2018-06-09T09:38:53.118Z,70.18
2018-06-09T09:39:18.823Z,70.18
2018-06-09T09:39:45.315Z,70.67
2018-06-09T09:40:11.412Z,70.86
2018-06-09T09:40:37.226Z,70.67
2018-06-09T09:41:03.490Z,70.76
2018-06-09T09:41:29.294Z,70.09
2018-06-09T09:41:55.197Z,69.89
2018-06-09T09:42:21.477Z,69.6
2018-06-09T09:42:47.998Z,69.85
2018-06-09T09:43:13.574Z,70.09
2018-06-09T09:43:39.675Z,70.09
2018-06-09T09:44:05.535Z,70.54
2018-06-09T09:44:31.284Z,70.63
2018-06-09T09:44:57.620Z,71.5
2018-06-09T09:45:23.083Z,71.31
2018-06-09T09:45:48.882Z,70.83
2018-06-09T09:46:15.813Z,70.73
2018-06-09T09:46:41.380Z,70.83
2018-06-09T09:47:07.827Z,71.12
2018-06-09T09:47:34.862Z,71.41
2018-06-09T09:48:00.440Z,71.22
2018-06-09T09:48:26.644Z,71.22
2018-06-09T09:48:52.256Z,71.31
2018-06-09T09:49:18.418Z,71.99
2018-06-09T09:49:44.508Z,72.86
2018-06-09T09:50:10.932Z,73.25
2018-06-09T09:50:37.097Z,73.09
2018-06-09T09:51:03.384Z,72.51
2018-06-09T09:51:29.332Z,72.12
2018-06-09T09:51:54.918Z,72.22
2018-06-09T09:52:20.669Z,71.93